Time;durP1;ratioP1;P1;durP2;ratioP2;P2;SDS_P1;SDS_P2;PMS_P1;PMS_P2;Temp;Humidity;BMP_temperature;BMP_pressure;BME280_temperature;BME280_humidity;BME280_pressure;Samples;Min_cycle;Max_cycle;Signal;HPM_P1;HPM_P2
2021/04/11 00:01:01;;;;;;;31.38;21.35;;;9.90;99.90;;;;;;4989829;28;20235;-74
2021/04/11 00:03:28;;;;;;;37.95;22.40;;;9.80;99.90;;;;;;4989555;28;20512;-74
2021/04/11 00:05:54;;;;;;;31.90;21.95;;;9.90;99.90;;;;;;4988625;28;20175;-74
2021/04/11 00:08:21;;;;;;;30.50;21.35;;;9.90;99.90;;;;;;4989559;28;20031;-75
2021/04/11 00:10:50;;;;;;;37.97;23.58;;;9.80;99.90;;;;;;4991432;28;20022;-74
2021/04/11 00:13:26;;;;;;;33.83;22.27;;;9.90;99.90;;;;;;4989653;28;20039;-73
2021/04/11 00:15:52;;;;;;;33.42;22.63;;;10.00;99.90;;;;;;4989167;28;20456;-75
2021/04/11 00:18:18;;;;;;;31.77;21.45;;;9.90;99.90;;;;;;4989510;28;20045;-73
2021/04/11 00:20:44;;;;;;;33.92;21.98;;;9.90;99.90;;;;;;4989800;28;20022;-73
2021/04/11 00:23:10;;;;;;;35.55;23.10;;;9.90;99.90;;;;;;4989956;28;20612;-74
2021/04/11 00:25:39;;;;;;;37.33;22.65;;;9.90;99.90;;;;;;4991086;28;20030;-73
2021/04/11 00:28:06;;;;;;;33.38;23.05;;;9.90;99.90;;;;;;4989761;28;20077;-73
2021/04/11 00:30:32;;;;;;;36.95;23.02;;;9.90;99.90;;;;;;4984362;28;20396;-73
2021/04/11 00:33:00;;;;;;;34.15;22.40;;;9.90;99.90;;;;;;4989532;28;20049;-73
2021/04/11 00:35:26;;;;;;;31.88;22.38;;;9.90;99.90;;;;;;4989780;28;20061;-73
2021/04/11 00:37:52;;;;;;;35.85;22.58;;;9.90;99.90;;;;;;4991284;28;20046;-73
2021/04/11 00:40:24;;;;;;;33.60;22.55;;;9.80;99.90;;;;;;4989581;28;20046;-73
2021/04/11 00:43:12;;;;;;;33.03;22.17;;;9.90;99.90;;;;;;4988122;28;20034;-72
2021/04/11 00:45:45;;;;;;;33.00;21.80;;;9.90;99.90;;;;;;4989648;28;20038;-73
2021/04/11 00:48:12;;;;;;;36.72;22.67;;;9.90;99.90;;;;;;4992845;28;20030;-73
2021/04/11 00:50:38;;;;;;;33.22;22.15;;;9.90;99.90;;;;;;4993023;28;20092;-73
2021/04/11 00:53:05;;;;;;;30.90;21.40;;;9.90;99.90;;;;;;4992974;28;20227;-72
2021/04/11 00:55:32;;;;;;;32.80;21.87;;;9.90;99.90;;;;;;4993526;28;20030;-73
2021/04/11 00:57:58;;;;;;;33.10;21.35;;;9.90;99.90;;;;;;4991900;28;20729;-73
2021/04/11 01:00:26;;;;;;;34.47;21.30;;;9.90;99.90;;;;;;4992901;28;20049;-73
2021/04/11 01:02:53;;;;;;;33.45;22.38;;;9.90;99.90;;;;;;4993058;28;20038;-73
2021/04/11 01:05:24;;;;;;;36.05;22.35;;;9.90;99.90;;;;;;4992675;28;20030;-73
2021/04/11 01:07:51;;;;;;;33.47;21.38;;;9.90;99.90;;;;;;4994351;28;20053;-72
2021/04/11 01:10:25;;;;;;;33.08;21.17;;;9.90;99.90;;;;;;4992691;28;20053;-72
2021/04/11 01:12:52;;;;;;;34.30;21.33;;;9.90;99.90;;;;;;4991345;28;20105;-72
2021/04/11 01:15:30;;;;;;;30.35;19.90;;;9.90;99.90;;;;;;4992322;28;20030;-73
2021/04/11 01:17:56;;;;;;;34.67;22.00;;;9.90;99.90;;;;;;4992228;28;20038;-73
2021/04/11 01:20:23;;;;;;;32.88;19.98;;;9.90;99.90;;;;;;4992381;28;20045;-73
2021/04/11 01:23:25;;;;;;;33.35;20.75;;;9.90;99.90;;;;;;4993022;28;20040;-73
2021/04/11 01:25:55;;;;;;;28.00;20.08;;;9.90;99.90;;;;;;4979759;28;20077;-74
2021/04/11 01:28:24;;;;;;;33.17;20.50;;;9.90;99.90;;;;;;4992166;28;20129;-74
2021/04/11 01:30:55;;;;;;;30.08;20.75;;;9.90;99.90;;;;;;4991471;28;20034;-74
2021/04/11 01:33:25;;;;;;;33.25;21.13;;;9.90;99.90;;;;;;4992344;28;20095;-72
2021/04/11 01:35:52;;;;;;;32.75;20.73;;;9.90;99.90;;;;;;4999952;28;20116;-73
2021/04/11 01:38:19;;;;;;;35.15;20.75;;;9.90;99.90;;;;;;5010873;28;20094;-73
2021/04/11 01:41:03;;;;;;;35.70;22.65;;;9.90;99.90;;;;;;5012530;28;20107;-74
2021/04/11 01:43:30;;;;;;;32.38;21.98;;;9.90;99.90;;;;;;5011819;28;20070;-73
2021/04/11 01:45:56;;;;;;;33.42;21.95;;;9.90;99.90;;;;;;5011777;28;20041;-73
2021/04/11 01:48:23;;;;;;;31.35;20.55;;;9.90;99.90;;;;;;5011624;28;20037;-73
2021/04/11 01:50:49;;;;;;;31.77;20.98;;;10.00;99.90;;;;;;5011292;28;20037;-73
2021/04/11 01:53:17;;;;;;;32.78;21.30;;;10.00;99.90;;;;;;5010280;28;20464;-73
2021/04/11 01:55:43;;;;;;;33.42;22.02;;;10.00;99.90;;;;;;5012830;28;20076;-73
2021/04/11 01:58:11;;;;;;;31.52;20.92;;;9.90;99.90;;;;;;5010842;28;20044;-74
2021/04/11 02:00:47;;;;;;;31.58;20.52;;;9.90;99.90;;;;;;5011210;28;20030;-74
2021/04/11 02:03:15;;;;;;;33.92;21.52;;;10.00;99.90;;;;;;5011030;28;20066;-73
2021/04/11 02:05:43;;;;;;;31.55;20.67;;;10.00;99.90;;;;;;5011080;28;20116;-72
2021/04/11 02:08:11;;;;;;;31.35;21.48;;;10.00;99.90;;;;;;5011297;28;20025;-73
2021/04/11 02:10:41;;;;;;;31.98;20.80;;;10.10;99.90;;;;;;5012766;28;20018;-73
2021/04/11 02:13:07;;;;;;;33.05;21.23;;;10.00;99.90;;;;;;5011048;28;20141;-74
2021/04/11 02:15:38;;;;;;;33.95;21.20;;;10.00;99.90;;;;;;5011023;28;20037;-73
2021/04/11 02:18:04;;;;;;;32.20;21.75;;;10.00;99.90;;;;;;5010970;28;20026;-74
2021/04/11 02:20:32;;;;;;;29.70;19.90;;;9.90;99.90;;;;;;5011149;28;20117;-75
2021/04/11 02:22:58;;;;;;;35.20;22.58;;;10.00;99.90;;;;;;5012565;28;20025;-75
2021/04/11 02:25:27;;;;;;;35.15;21.35;;;10.00;99.90;;;;;;5011046;28;20042;-75
2021/04/11 02:27:55;;;;;;;31.92;21.05;;;10.00;99.90;;;;;;5011150;28;20537;-74
2021/04/11 02:30:22;;;;;;;35.08;22.13;;;10.00;99.90;;;;;;5010609;28;20049;-74
2021/04/11 02:32:49;;;;;;;30.77;20.90;;;10.00;99.90;;;;;;5009583;28;20123;-76
2021/04/11 02:35:20;;;;;;;32.25;20.92;;;10.00;99.90;;;;;;5010437;28;20483;-74
2021/04/11 02:37:52;;;;;;;32.17;21.05;;;10.10;99.90;;;;;;5012082;28;20076;-74
2021/04/11 02:40:24;;;;;;;30.33;19.95;;;10.00;99.90;;;;;;5010511;28;20053;-74
2021/04/11 02:42:50;;;;;;;31.00;19.90;;;10.00;99.90;;;;;;5010700;28;20171;-73
2021/04/11 02:45:20;;;;;;;31.98;21.52;;;10.10;99.90;;;;;;5010493;28;20053;-74
2021/04/11 02:47:46;;;;;;;32.65;20.42;;;10.10;99.90;;;;;;5010807;28;20041;-74
2021/04/11 02:50:14;;;;;;;28.15;19.70;;;10.10;99.90;;;;;;5011045;28;20033;-74
2021/04/11 02:52:54;;;;;;;34.38;21.77;;;10.10;99.90;;;;;;5011908;28;20026;-74
2021/04/11 02:55:20;;;;;;;29.98;19.58;;;10.10;99.90;;;;;;5010939;28;20084;-73
2021/04/11 02:57:46;;;;;;;32.03;20.23;;;10.10;99.90;;;;;;5010278;28;20046;-73
2021/04/11 03:00:19;;;;;;;31.52;19.55;;;10.10;99.90;;;;;;5010182;28;20034;-73
2021/04/11 03:02:45;;;;;;;29.00;19.50;;;10.10;99.90;;;;;;5010220;28;20045;-72
2021/04/11 03:05:13;;;;;;;32.20;20.65;;;10.10;99.90;;;;;;5010417;28;20026;-74
2021/04/11 03:07:44;;;;;;;29.58;19.30;;;10.10;99.90;;;;;;5011694;28;20088;-73
2021/04/11 03:10:29;;;;;;;32.45;20.75;;;10.10;99.90;;;;;;5009539;28;20144;-72
2021/04/11 03:12:56;;;;;;;31.15;19.98;;;10.10;99.90;;;;;;5010132;28;20132;-73
2021/04/11 03:15:23;;;;;;;37.95;21.33;;;10.00;99.90;;;;;;5010065;28;20104;-74
2021/04/11 03:17:53;;;;;;;33.28;20.27;;;10.10;99.90;;;;;;5009980;28;20037;-74
2021/04/11 03:20:40;;;;;;;33.83;21.55;;;10.10;99.90;;;;;;5009982;28;20388;-73
2021/04/11 03:23:08;;;;;;;33.58;21.30;;;10.10;99.90;;;;;;5010080;28;20041;-72
2021/04/11 03:25:37;;;;;;;30.05;20.63;;;10.10;99.90;;;;;;5011519;28;20022;-75
2021/04/11 03:28:11;;;;;;;33.17;20.58;;;10.20;99.90;;;;;;5010440;28;20187;-74
2021/04/11 03:31:03;;;;;;;34.53;21.60;;;10.10;99.90;;;;;;5009887;28;20084;-74
2021/04/11 03:33:31;;;;;;;38.45;22.00;;;10.10;99.90;;;;;;5003040;28;20478;-74
2021/04/11 03:35:57;;;;;;;36.42;22.45;;;10.00;99.90;;;;;;5009413;28;20476;-74
2021/04/11 03:38:26;;;;;;;38.15;22.08;;;10.10;99.90;;;;;;5009861;28;20120;-75
2021/04/11 03:40:55;;;;;;;36.15;21.63;;;10.10;99.90;;;;;;5011284;28;20041;-74
2021/04/11 03:43:29;;;;;;;36.13;22.92;;;10.10;99.90;;;;;;5009638;28;20038;-74
2021/04/11 03:45:58;;;;;;;33.33;20.88;;;10.10;99.90;;;;;;5009902;28;20088;-73
2021/04/11 03:48:35;;;;;;;37.63;20.98;;;10.10;99.90;;;;;;5009643;28;20131;-74
2021/04/11 03:51:09;;;;;;;32.25;21.90;;;10.20;99.90;;;;;;5009776;28;20526;-73
2021/04/11 03:53:52;;;;;;;34.67;21.83;;;10.20;99.90;;;;;;5009552;28;20037;-73
2021/04/11 03:56:21;;;;;;;37.15;21.85;;;10.20;99.90;;;;;;5009230;28;20444;-73
2021/04/11 03:58:50;;;;;;;34.40;21.75;;;10.30;99.90;;;;;;5011422;28;20032;-73
2021/04/11 04:01:22;;;;;;;30.73;19.67;;;10.30;99.90;;;;;;5009889;28;20034;-73
2021/04/11 04:03:50;;;;;;;35.85;21.23;;;10.30;99.90;;;;;;5009891;28;20125;-74
2021/04/11 04:06:20;;;;;;;;;;;10.30;99.90;;;;;;5009927;28;20088;-74
2021/04/11 04:08:45;;;;;;;39.95;21.48;;;10.30;99.90;;;;;;5009395;28;19913;-73
2021/04/11 04:11:33;;;;;;;32.33;20.45;;;10.30;99.90;;;;;;5009386;28;20048;-72
2021/04/11 04:14:17;;;;;;;34.67;20.60;;;10.40;99.90;;;;;;5010873;28;20100;-72
2021/04/11 04:16:58;;;;;;;32.97;19.52;;;10.40;99.90;;;;;;5009661;28;20042;-73
2021/04/11 04:20:01;;;;;;;32.10;20.60;;;10.40;99.90;;;;;;5008893;28;20037;-73
2021/04/11 04:22:43;;;;;;;33.25;19.70;;;10.40;99.90;;;;;;5013516;28;20290;-73
2021/04/11 04:25:30;;;;;;;33.53;19.33;;;10.40;99.90;;;;;;5013228;28;20046;-74
2021/04/11 04:28:31;;;;;;;36.33;21.05;;;10.40;99.90;;;;;;5013385;28;20034;-73
2021/04/11 04:31:01;;;;;;;34.05;20.02;;;10.40;99.90;;;;;;5013480;28;20100;-73
2021/04/11 04:33:54;;;;;;;33.60;20.77;;;10.40;99.90;;;;;;5013154;28;20144;-74
2021/04/11 04:36:38;;;;;;;32.13;20.25;;;10.40;99.90;;;;;;4994591;28;20104;-73
2021/04/11 04:39:04;;;;;;;32.25;20.48;;;10.40;99.90;;;;;;5011568;28;20108;-74
2021/04/11 04:41:45;;;;;;;31.48;19.58;;;10.40;99.90;;;;;;5012769;28;20042;-73
2021/04/11 04:44:21;;;;;;;36.92;20.42;;;10.40;99.90;;;;;;5012382;28;20030;-73
2021/04/11 04:46:59;;;;;;;33.80;20.90;;;10.40;99.90;;;;;;5014273;28;20033;-72
2021/04/11 04:49:43;;;;;;;;;;;10.50;99.90;;;;;;5013463;28;20040;-72
2021/04/11 04:52:15;;;;;;;35.53;21.35;;;10.50;99.90;;;;;;5011607;28;19910;-73
2021/04/11 04:55:00;;;;;;;34.30;20.33;;;10.50;99.90;;;;;;5012565;28;20225;-72
2021/04/11 04:57:37;;;;;;;34.50;20.25;;;10.50;99.90;;;;;;5011472;28;20070;-74
2021/04/11 05:00:14;;;;;;;41.60;22.73;;;10.50;99.90;;;;;;5012627;28;20042;-73
2021/04/11 05:02:55;;;;;;;33.05;20.33;;;10.50;99.90;;;;;;5012481;28;20479;-74
2021/04/11 05:05:22;;;;;;;31.73;20.23;;;10.50;99.90;;;;;;5011682;28;20046;-73
2021/04/11 05:08:06;;;;;;;32.07;20.87;;;10.50;99.90;;;;;;5014166;28;20132;-74
2021/04/11 05:10:48;;;;;;;31.98;19.95;;;10.60;99.90;;;;;;5012759;28;20049;-73
2021/04/11 05:13:18;;;;;;;34.88;20.60;;;10.60;99.90;;;;;;5012843;28;20029;-73
2021/04/11 05:15:49;;;;;;;36.10;20.92;;;10.60;99.90;;;;;;5010729;28;20053;-73
2021/04/11 05:18:21;;;;;;;41.65;20.65;;;10.60;99.90;;;;;;5010858;28;20037;-73
2021/04/11 05:20:56;;;;;;;36.50;20.83;;;10.60;99.90;;;;;;5012289;28;20061;-72
2021/04/11 05:23:35;;;;;;;33.70;21.15;;;10.70;99.90;;;;;;5012314;28;20038;-73
2021/04/11 05:26:47;;;;;;;36.25;20.27;;;10.70;99.90;;;;;;5012027;28;20034;-72
2021/04/11 05:29:31;;;;;;;38.33;21.00;;;10.70;99.90;;;;;;5003022;28;20125;-72
2021/04/11 05:31:57;;;;;;;33.35;21.17;;;10.80;99.90;;;;;;5012947;28;20037;-72
2021/04/11 05:34:25;;;;;;;32.15;20.58;;;10.80;99.90;;;;;;5011276;28;20122;-73
2021/04/11 05:36:51;;;;;;;34.47;20.08;;;10.80;99.90;;;;;;5011478;28;20446;-74
2021/04/11 05:39:37;;;;;;;34.97;20.40;;;10.90;99.90;;;;;;5011587;28;20034;-73
2021/04/11 05:42:02;;;;;;;33.13;20.05;;;10.90;99.90;;;;;;5010595;28;20097;-73
2021/04/11 05:44:37;;;;;;;33.50;20.85;;;10.90;99.90;;;;;;5010654;28;20411;-73
2021/04/11 05:47:26;;;;;;;32.20;19.85;;;11.00;99.90;;;;;;5010591;28;20269;-73
2021/04/11 05:50:00;;;;;;;32.97;19.58;;;11.00;99.90;;;;;;5006320;28;20101;-69
2021/04/11 05:52:34;;;;;;;33.22;20.10;;;11.00;99.90;;;;;;4992836;28;20137;-72
2021/04/11 05:55:02;;;;;;;34.50;20.83;;;11.00;99.90;;;;;;4991284;28;20046;-73
2021/04/11 05:57:31;;;;;;;;;;;11.00;99.90;;;;;;4992273;28;20038;-72
2021/04/11 06:00:08;;;;;;;31.45;19.08;;;11.00;99.90;;;;;;4992430;28;20004;-74
2021/04/11 06:02:44;;;;;;;34.05;21.77;;;11.10;99.90;;;;;;4992006;28;20050;-75
2021/04/11 06:05:20;;;;;;;35.40;20.95;;;11.10;99.90;;;;;;4990215;28;20035;-74
2021/04/11 06:07:54;;;;;;;32.47;20.05;;;11.10;99.90;;;;;;4993486;28;20065;-74
2021/04/11 06:10:33;;;;;;;32.00;20.13;;;11.10;99.90;;;;;;4991871;28;20077;-73
2021/04/11 06:13:08;;;;;;;33.65;20.10;;;11.20;99.90;;;;;;4991255;28;20122;-75
2021/04/11 06:15:41;;;;;;;32.33;19.50;;;11.20;99.90;;;;;;4991613;28;20142;-76
2021/04/11 06:18:08;;;;;;;31.27;19.13;;;11.20;99.90;;;;;;4991742;28;20039;-72
2021/04/11 06:20:36;;;;;;;32.40;19.52;;;11.20;99.90;;;;;;4991240;28;20057;-71
2021/04/11 06:23:23;;;;;;;29.60;19.10;;;11.30;99.90;;;;;;4990644;28;20023;-71
2021/04/11 06:26:19;;;;;;;32.20;18.77;;;11.30;99.90;;;;;;4993093;28;20036;-72
2021/04/11 06:28:48;;;;;;;27.33;17.33;;;11.40;99.90;;;;;;4991684;28;20050;-72
2021/04/11 06:31:23;;;;;;;30.33;19.35;;;11.40;99.90;;;;;;4991678;28;20046;-71
2021/04/11 06:34:02;;;;;;;28.80;18.38;;;11.40;99.90;;;;;;4991562;28;20473;-73
2021/04/11 06:36:50;;;;;;;28.00;18.42;;;11.50;99.90;;;;;;4991418;28;20081;-72
2021/04/11 06:39:27;;;;;;;26.63;17.55;;;11.50;99.90;;;;;;4991332;28;20148;-72
2021/04/11 06:42:26;;;;;;;29.25;18.08;;;11.50;99.90;;;;;;4991483;28;20039;-72
2021/04/11 06:45:10;;;;;;;26.88;16.70;;;11.50;99.90;;;;;;4990528;28;20122;-73
2021/04/11 06:48:13;;;;;;;27.92;17.27;;;11.50;99.90;;;;;;4991567;28;20108;-74
2021/04/11 06:51:06;;;;;;;24.63;15.90;;;11.50;99.90;;;;;;4991167;28;20508;-74
2021/04/11 06:54:09;;;;;;;30.58;16.95;;;11.60;99.90;;;;;;4990363;28;20046;-73
2021/04/11 06:57:08;;;;;;;27.20;17.35;;;11.60;99.90;;;;;;4990258;28;20039;-74
2021/04/11 06:59:46;;;;;;;29.27;16.00;;;11.60;99.90;;;;;;4989888;28;20121;-73
2021/04/11 07:02:14;;;;;;;29.70;15.75;;;11.70;99.90;;;;;;4991371;28;20340;-74
2021/04/11 07:04:57;;;;;;;25.13;16.63;;;11.70;99.90;;;;;;4992352;28;20023;-73
2021/04/11 07:07:38;;;;;;;24.70;15.50;;;11.70;99.90;;;;;;4990811;28;20050;-73
2021/04/11 07:10:22;;;;;;;25.73;15.73;;;11.80;99.90;;;;;;4990800;28;20039;-73
2021/04/11 07:13:10;;;;;;;27.27;15.85;;;11.80;99.90;;;;;;4989599;28;20026;-74
2021/04/11 07:15:57;;;;;;;26.67;17.20;;;11.70;99.90;;;;;;4989636;28;20437;-73
2021/04/11 07:18:28;;;;;;;25.37;16.00;;;11.80;99.90;;;;;;4990309;28;20062;-75
2021/04/11 07:21:09;;;;;;;25.90;15.07;;;11.80;99.90;;;;;;4991129;28;20417;-82
2021/04/11 07:23:56;;;;;;;24.02;15.15;;;11.80;99.90;;;;;;4989753;28;20369;-75
2021/04/11 07:26:55;;;;;;;23.10;15.40;;;11.80;99.90;;;;;;4989298;28;20034;-75
2021/04/11 07:29:38;;;;;;;24.30;15.50;;;11.90;99.90;;;;;;4989412;28;20247;-76
2021/04/11 07:32:22;;;;;;;23.98;14.30;;;11.90;99.90;;;;;;4990066;28;20023;-76
2021/04/11 07:35:00;;;;;;;21.65;14.40;;;11.90;99.90;;;;;;4992009;28;20026;-74
2021/04/11 07:38:01;;;;;;;30.55;17.08;;;11.90;99.90;;;;;;4990748;28;20385;-76
2021/04/11 07:40:48;;;;;;;26.55;15.15;;;11.90;99.90;;;;;;4991044;28;20035;-74
2021/04/11 07:43:26;;;;;;;29.77;16.92;;;11.90;99.90;;;;;;4990183;28;20057;-73
2021/04/11 07:45:58;;;;;;;26.50;15.43;;;12.00;99.90;;;;;;4989876;28;20096;-73
2021/04/11 07:48:45;;;;;;;20.77;14.82;;;12.00;99.90;;;;;;4990032;28;20118;-72
2021/04/11 07:51:23;;;;;;;;;;;12.00;99.90;;;;;;4990762;28;20046;-72
2021/04/11 07:53:53;;;;;;;25.83;14.98;;;12.00;99.90;;;;;;4990213;28;20331;-74
2021/04/11 07:56:51;;;;;;;24.90;15.63;;;12.00;99.90;;;;;;4989976;28;20053;-75
2021/04/11 07:59:44;;;;;;;25.48;15.60;;;12.10;99.90;;;;;;4988378;28;20031;-78
2021/04/11 08:02:18;;;;;;;21.23;14.63;;;12.00;99.90;;;;;;4989960;28;20085;-75
2021/04/11 08:05:20;;;;;;;27.75;15.45;;;12.10;99.90;;;;;;4991340;28;20436;-79
2021/04/11 08:08:05;;;;;;;21.52;14.32;;;12.10;99.90;;;;;;4989899;28;20039;-77
2021/04/11 08:10:48;;;;;;;23.33;15.00;;;12.20;99.90;;;;;;4988782;28;20042;-76
2021/04/11 08:13:17;;;;;;;22.95;14.00;;;12.30;99.90;;;;;;4989950;28;20480;-75
2021/04/11 08:15:49;;;;;;;23.70;14.93;;;12.30;99.90;;;;;;4989554;28;20359;-72
2021/04/11 08:18:32;;;;;;;25.95;15.38;;;12.30;99.90;;;;;;4989524;28;20089;-74
2021/04/11 08:21:07;;;;;;;19.73;12.45;;;12.30;99.90;;;;;;4989908;28;20500;-74
2021/04/11 08:24:00;;;;;;;20.00;12.82;;;12.30;99.90;;;;;;4989535;28;20026;-73
2021/04/11 08:27:00;;;;;;;22.33;12.95;;;12.40;99.90;;;;;;4989556;28;20050;-74
2021/04/11 08:29:41;;;;;;;16.85;10.50;;;12.40;99.90;;;;;;4988315;28;20564;-75
2021/04/11 08:32:28;;;;;;;16.50;9.93;;;12.40;99.90;;;;;;4986248;28;20027;-73
2021/04/11 08:35:21;;;;;;;17.20;8.93;;;12.50;99.90;;;;;;4991886;28;20097;-74
2021/04/11 08:38:02;;;;;;;13.20;8.60;;;12.50;99.90;;;;;;4990013;28;20063;-74
2021/04/11 08:40:49;;;;;;;15.88;8.30;;;12.50;99.90;;;;;;4989976;28;20085;-76
2021/04/11 08:43:28;;;;;;;22.95;9.70;;;12.50;99.90;;;;;;4989401;28;20365;-77
2021/04/11 08:46:03;;;;;;;11.75;7.95;;;12.60;99.90;;;;;;4989404;28;20038;-76
2021/04/11 08:49:14;;;;;;;11.85;6.82;;;12.60;99.90;;;;;;4989528;28;20130;-78
2021/04/11 08:51:49;;;;;;;12.88;6.75;;;12.70;99.90;;;;;;4988796;28;20053;-76
2021/04/11 08:54:31;;;;;;;13.45;6.75;;;12.70;99.90;;;;;;4989339;28;20046;-76
2021/04/11 08:57:02;;;;;;;13.55;7.28;;;12.70;99.90;;;;;;4989573;28;20040;-76
2021/04/11 08:59:42;;;;;;;12.30;7.15;;;12.70;99.90;;;;;;4989641;28;20255;-78
2021/04/11 09:02:28;;;;;;;17.80;7.10;;;12.80;99.90;;;;;;4988347;28;20035;-76
2021/04/11 09:05:17;;;;;;;9.70;6.68;;;12.80;99.90;;;;;;4991148;28;20023;-76
2021/04/11 09:08:31;;;;;;;13.07;6.53;;;12.80;99.90;;;;;;4989790;28;20077;-73
2021/04/11 09:11:02;;;;;;;11.25;8.00;;;12.80;99.90;;;;;;4989323;28;20108;-74
2021/04/11 09:13:37;;;;;;;10.30;6.43;;;12.80;99.90;;;;;;4993039;28;20077;-74
2021/04/11 09:16:25;;;;;;;16.15;8.15;;;12.80;99.90;;;;;;4992304;28;20042;-74
2021/04/11 09:19:18;;;;;;;6.88;4.38;;;12.80;99.90;;;;;;4992372;28;20065;-77
2021/04/11 09:22:06;;;;;;;5.30;3.70;;;12.70;99.90;;;;;;4991841;28;20042;-78
2021/04/11 09:24:50;;;;;;;6.03;3.50;;;12.60;99.90;;;;;;4992925;28;20126;-77
2021/04/11 09:27:24;;;;;;;4.20;3.42;;;12.60;99.90;;;;;;4991604;28;20400;-76
2021/04/11 09:30:25;;;;;;;5.45;3.00;;;12.60;99.90;;;;;;4991595;28;20365;-75
2021/04/11 09:33:16;;;;;;;5.43;3.33;;;12.60;99.90;;;;;;4992117;28;20101;-75
2021/04/11 09:35:47;;;;;;;5.47;3.38;;;12.70;99.90;;;;;;4992533;28;20045;-75
2021/04/11 09:38:54;;;;;;;5.60;2.95;;;12.60;99.90;;;;;;4991022;28;20053;-74
2021/04/11 09:41:43;;;;;;;3.45;2.40;;;12.50;99.90;;;;;;4977536;28;20034;-73
2021/04/11 09:44:29;;;;;;;4.07;2.42;;;12.60;99.80;;;;;;4992400;28;20084;-78
2021/04/11 09:47:24;;;;;;;3.40;2.40;;;12.60;99.80;;;;;;4982575;28;20104;-76
2021/04/11 09:50:23;;;;;;;2.70;2.08;;;12.50;99.90;;;;;;4992391;28;20077;-75
2021/04/11 09:53:03;;;;;;;5.07;2.20;;;12.40;99.90;;;;;;4992959;28;20078;-75
2021/04/11 09:56:07;;;;;;;2.33;2.08;;;12.50;99.90;;;;;;4990790;28;20185;-75
2021/04/11 09:59:07;;;;;;;2.33;1.88;;;12.40;99.90;;;;;;4971154;28;20034;-76
2021/04/11 10:01:53;;;;;;;3.15;1.70;;;12.20;99.90;;;;;;4992025;28;20061;-75
2021/04/11 10:04:49;;;;;;;2.72;1.25;;;12.10;99.90;;;;;;4990447;28;20035;-75
2021/04/11 10:07:15;;;;;;;2.90;2.17;;;12.10;99.90;;;;;;4992178;28;20034;-75
2021/04/11 10:09:46;;;;;;;3.00;2.22;;;12.10;99.90;;;;;;4992367;28;20153;-74
2021/04/11 10:12:49;;;;;;;4.05;2.60;;;12.20;99.90;;;;;;4992438;28;20034;-82
2021/04/11 10:15:34;;;;;;;4.65;3.67;;;12.20;99.90;;;;;;4991000;28;20518;-80
2021/04/11 10:18:34;;;;;;;5.68;3.95;;;12.00;99.90;;;;;;4991757;28;20429;-78
2021/04/11 10:21:42;;;;;;;6.15;4.03;;;11.80;99.90;;;;;;4992072;28;20376;-75
2021/04/11 10:24:51;;;;;;;6.75;4.45;;;11.80;99.90;;;;;;4991990;28;20116;-74
2021/04/11 10:27:49;;;;;;;6.18;4.78;;;11.80;99.90;;;;;;4991300;28;20117;-74
2021/04/11 10:30:17;;;;;;;7.55;5.18;;;11.70;99.90;;;;;;4989973;28;20042;-74
2021/04/11 10:32:48;;;;;;;7.80;5.55;;;11.60;99.90;;;;;;4988809;28;20114;-75
2021/04/11 10:35:29;;;;;;;7.95;5.32;;;11.50;99.90;;;;;;4991475;28;20457;-75
2021/04/11 10:38:01;;;;;;;8.50;5.93;;;11.70;99.90;;;;;;4992053;28;20349;-77
2021/04/11 10:40:57;;;;;;;7.18;5.32;;;11.60;99.80;;;;;;4991641;28;20030;-79
2021/04/11 10:43:47;;;;;;;10.30;6.63;;;11.60;99.60;;;;;;4991365;28;20357;-74
2021/04/11 10:46:22;;;;;;;9.15;6.40;;;11.50;99.40;;;;;;4991393;28;20121;-73
2021/04/11 10:49:02;;;;;;;10.60;6.68;;;11.50;99.20;;;;;;4990792;28;20057;-75
2021/04/11 10:51:40;;;;;;;9.30;6.57;;;11.30;99.30;;;;;;4991561;28;20137;-74
2021/04/11 10:54:42;;;;;;;9.93;6.80;;;11.40;99.30;;;;;;4990974;28;20043;-76
2021/04/11 10:57:32;;;;;;;10.27;6.90;;;11.30;98.90;;;;;;4991333;28;20383;-73
2021/04/11 11:00:09;;;;;;;11.40;7.72;;;11.10;99.10;;;;;;4991031;28;20030;-75
2021/04/11 11:03:09;;;;;;;10.90;7.32;;;11.00;99.30;;;;;;4990816;28;20117;-74
2021/04/11 11:06:10;;;;;;;9.43;7.25;;;11.00;99.10;;;;;;4991188;28;20057;-74
2021/04/11 11:09:14;;;;;;;10.55;7.13;;;10.90;98.90;;;;;;4989598;28;20042;-76
2021/04/11 11:12:00;;;;;;;13.98;8.32;;;10.90;99.40;;;;;;4990676;28;20376;-74
2021/04/11 11:14:46;;;;;;;14.60;7.85;;;10.90;98.90;;;;;;4989700;28;20042;-75
2021/04/11 11:17:26;;;;;;;14.00;8.65;;;10.90;98.80;;;;;;4990426;28;20366;-76
2021/04/11 11:20:29;;;;;;;13.48;8.68;;;11.00;98.50;;;;;;4990960;28;20080;-79
2021/04/11 11:23:13;;;;;;;18.20;10.75;;;10.80;98.20;;;;;;4990823;28;20134;-75
2021/04/11 11:25:44;;;;;;;18.25;11.35;;;10.50;98.30;;;;;;4990468;28;20042;-75
2021/04/11 11:28:35;;;;;;;14.88;8.68;;;10.60;98.40;;;;;;4989375;28;20097;-76
2021/04/11 11:31:15;;;;;;;11.52;8.32;;;10.50;98.20;;;;;;4989565;28;20042;-79
2021/04/11 11:33:59;;;;;;;14.07;8.60;;;10.40;98.20;;;;;;4990257;28;20464;-73
2021/04/11 11:36:33;;;;;;;13.52;8.95;;;10.40;98.00;;;;;;4990154;28;20061;-73
2021/04/11 11:39:31;;;;;;;17.77;9.27;;;10.40;98.10;;;;;;4990218;28;20563;-73
2021/04/11 11:42:14;;;;;;;14.15;9.05;;;10.30;97.60;;;;;;4990112;28;20044;-85
2021/04/11 11:44:55;;;;;;;12.18;8.35;;;10.20;97.80;;;;;;4988888;28;20034;-74
2021/04/11 11:47:41;;;;;;;11.00;8.02;;;10.30;97.50;;;;;;4990035;28;20457;-75
2021/04/11 11:50:31;;;;;;;13.18;8.30;;;10.20;97.50;;;;;;4988930;28;20018;-72
2021/04/11 11:53:05;;;;;;;13.95;8.15;;;10.30;97.50;;;;;;4992005;28;20023;-77
2021/04/11 11:55:37;;;;;;;12.15;8.07;;;10.20;97.40;;;;;;4990275;28;20137;-76
2021/04/11 11:58:14;;;;;;;18.08;9.00;;;10.20;97.40;;;;;;4990188;28;20489;-75
2021/04/11 12:00:44;;;;;;;16.83;9.70;;;10.10;97.40;;;;;;4988280;28;20117;-75
2021/04/11 12:03:29;;;;;;;16.23;9.38;;;10.20;97.20;;;;;;4989889;28;20172;-75
2021/04/11 12:06:06;;;;;;;16.67;9.45;;;10.30;97.40;;;;;;4988605;28;20023;-76
2021/04/11 12:08:58;;;;;;;13.90;8.52;;;10.20;97.30;;;;;;4990290;28;20034;-73
2021/04/11 12:11:48;;;;;;;17.40;9.60;;;9.90;97.70;;;;;;4989944;28;20046;-75
2021/04/11 12:14:23;;;;;;;14.57;9.43;;;9.80;97.80;;;;;;4989379;28;20054;-77
2021/04/11 12:17:30;;;;;;;16.67;9.30;;;9.70;97.80;;;;;;4991358;28;20022;-76
2021/04/11 12:20:07;;;;;;;16.40;8.07;;;9.50;97.90;;;;;;4989667;28;20424;-76
2021/04/11 12:22:45;;;;;;;13.10;8.68;;;9.70;98.00;;;;;;4990053;28;20066;-76
2021/04/11 12:25:17;;;;;;;12.90;7.82;;;9.70;97.80;;;;;;4989658;28;20035;-82
2021/04/11 12:27:44;;;;;;;15.07;7.65;;;9.90;97.80;;;;;;4988580;28;20049;-78
2021/04/11 12:30:14;;;;;;;10.55;6.72;;;9.80;98.00;;;;;;4989880;28;20038;-77
2021/04/11 12:33:01;;;;;;;11.10;6.68;;;9.80;98.10;;;;;;4988415;28;20030;-75
2021/04/11 12:35:52;;;;;;;13.80;6.10;;;9.80;97.90;;;;;;4989638;28;20082;-76
2021/04/11 12:38:37;;;;;;;7.65;4.80;;;9.80;97.80;;;;;;4989090;28;20284;-77
2021/04/11 12:41:17;;;;;;;11.27;4.43;;;9.50;97.60;;;;;;4989742;28;20359;-74
2021/04/11 12:44:17;;;;;;;7.07;4.05;;;9.50;97.60;;;;;;4994735;28;20015;-72
2021/04/11 12:47:19;;;;;;;7.90;4.53;;;9.40;97.70;;;;;;4992085;28;20026;-73
2021/04/11 12:49:58;;;;;;;5.57;3.88;;;9.40;97.70;;;;;;4993624;28;20030;-73
2021/04/11 12:52:43;;;;;;;9.23;5.40;;;9.50;97.50;;;;;;4992842;28;20062;-73
2021/04/11 12:55:22;;;;;;;5.75;3.60;;;9.40;97.50;;;;;;4992883;28;20038;-72
2021/04/11 12:57:54;;;;;;;5.45;4.00;;;9.40;97.60;;;;;;4991590;28;20035;-72
2021/04/11 13:00:24;;;;;;;5.40;3.75;;;9.30;98.00;;;;;;4991645;28;20046;-70
2021/04/11 13:02:59;;;;;;;7.05;3.78;;;9.20;97.80;;;;;;4992558;28;20093;-72
2021/04/11 13:05:39;;;;;;;4.57;3.63;;;9.10;98.10;;;;;;4992679;28;20062;-73
2021/04/11 13:08:15;;;;;;;9.88;5.53;;;9.00;98.00;;;;;;4992807;28;20134;-73
2021/04/11 13:10:59;;;;;;;4.68;3.22;;;9.10;98.20;;;;;;4994564;28;20026;-74
2021/04/11 13:13:46;;;;;;;7.68;3.20;;;9.30;97.90;;;;;;4993106;28;20484;-77
2021/04/11 13:16:20;;;;;;;4.22;3.10;;;9.30;97.80;;;;;;4992844;28;20045;-78
2021/04/11 13:18:57;;;;;;;5.07;2.50;;;9.00;98.00;;;;;;4993006;28;20030;-78
2021/04/11 13:21:49;;;;;;;4.85;2.65;;;8.90;98.20;;;;;;4992368;28;20045;-77
2021/04/11 13:24:22;;;;;;;4.78;2.83;;;8.80;98.60;;;;;;4992444;28;20038;-74
2021/04/11 13:26:58;;;;;;;3.90;2.30;;;8.80;98.70;;;;;;4986291;28;20027;-78
2021/04/11 13:29:37;;;;;;;3.45;2.22;;;8.60;98.50;;;;;;4972743;28;20023;-77
2021/04/11 13:32:21;;;;;;;4.80;2.10;;;8.70;98.70;;;;;;4973231;28;20123;-76
2021/04/11 13:35:05;;;;;;;6.25;2.22;;;8.70;98.60;;;;;;4974888;28;20023;-77